Time;durP1;ratioP1;P1;durP2;ratioP2;P2;SDS_P1;SDS_P2;PMS_P1;PMS_P2;Temp;Humidity;BMP_temperature;BMP_pressure;BME280_temperature;BME280_humidity;BME280_pressure;Samples;Min_cycle;Max_cycle;Signal;HPM_P1;HPM_P2
2023/06/19 01:18:29;;;;;;;30.73;23.77;;;13.60;99.90;;;;;;4619624;29;21301;-80
2023/06/19 01:49:32;;;;;;;27.50;21.77;;;13.20;99.90;;;;;;4764820;29;20226;-79
2023/06/19 02:14:45;;;;;;;24.60;20.40;;;12.80;99.90;;;;;;4663771;29;20267;-80
2023/06/19 02:34:46;;;;;;;23.20;19.63;;;12.80;99.90;;;;;;4608506;29;20678;-78
2023/06/19 02:55:29;;;;;;;21.37;18.40;;;12.60;99.90;;;;;;4661005;29;20200;-80
2023/06/19 03:25:53;;;;;;;22.50;19.20;;;13.00;99.90;;;;;;4639523;30;20699;-80
2023/06/19 03:51:11;;;;;;;21.57;17.90;;;13.70;99.90;;;;;;4653461;29;20755;-81
2023/06/19 04:31:10;;;;;;;17.83;15.90;;;14.90;99.90;;;;;;4769888;29;20558;-82
2023/06/19 04:57:07;;;;;;;18.27;14.77;;;17.00;99.90;;;;;;4696169;29;20677;-83
2023/06/19 05:22:21;;;;;;;13.60;12.20;;;18.60;99.90;;;;;;4703762;30;20255;-83
2023/06/19 05:42:48;;;;;;;12.00;10.90;;;18.90;98.50;;;;;;4656485;29;20923;-79
2023/06/19 06:07:48;;;;;;;10.33;9.33;;;20.80;90.50;;;;;;4537299;30;20594;-82
2023/06/19 06:43:48;;;;;;;9.32;8.43;;;22.00;84.00;;;;;;4879479;28;20244;-81
2023/06/19 07:14:09;;;;;;;8.88;8.18;;;22.80;83.10;;;;;;4717314;29;20450;-80
2023/06/19 07:34:10;;;;;;;10.48;9.45;;;23.20;82.40;;;;;;4685521;29;20547;-80
2023/06/19 08:04:54;;;;;;;10.52;9.63;;;23.50;80.60;;;;;;4650943;29;20240;-81
2023/06/19 08:30:09;;;;;;;9.27;8.55;;;24.20;77.40;;;;;;4625625;29;20494;-82
2023/06/19 08:50:27;;;;;;;7.93;7.30;;;24.20;69.30;;;;;;4606808;29;20349;-82
2023/06/19 09:20:47;;;;;;;8.07;7.20;;;24.70;67.70;;;;;;4627887;29;20211;-80
2023/06/19 09:41:06;;;;;;;7.43;6.82;;;24.20;62.80;;;;;;4585991;29;20212;-80
2023/06/19 10:11:50;;;;;;;7.97;7.30;;;25.80;60.60;;;;;;4768169;28;20209;-80
2023/06/19 10:16:08;;;;;;;7.80;7.10;;;26.10;57.80;;;;;;4666892;28;20803;-83
2023/06/19 11:11:56;;;;;;;7.32;6.50;;;25.90;52.80;;;;;;4560675;29;20569;-82
2023/06/19 11:32:56;;;;;;;5.78;5.38;;;26.00;52.60;;;;;;4686516;28;20224;-80
2023/06/19 12:02:40;;;;;;;6.03;5.40;;;26.80;50.60;;;;;;4472275;29;20650;-83
2023/06/19 12:23:31;;;;;;;6.20;5.60;;;26.50;50.40;;;;;;4823321;29;20422;-84
2023/06/19 12:58:57;;;;;;;5.55;4.47;;;29.60;46.20;;;;;;4965869;28;20219;-86
2023/06/19 13:24:27;;;;;;;6.65;6.15;;;28.50;48.60;;;;;;4853621;29;20250;-84
2023/06/19 14:05:01;;;;;;;7.90;5.55;;;31.70;49.30;;;;;;4991830;28;20286;-83
2023/06/19 14:25:22;;;;;;;6.15;5.65;;;29.20;48.10;;;;;;4897129;28;20315;-87
2023/06/19 14:50:19;;;;;;;6.25;5.65;;;31.90;47.60;;;;;;4720204;30;20235;-88
2023/06/19 15:21:05;;;;;;;5.57;5.18;;;32.80;46.60;;;;;;4959475;28;20194;-82
2023/06/19 16:16:23;;;;;;;5.40;5.00;;;31.30;43.60;;;;;;4628737;29;20371;-85
2023/06/19 16:41:40;;;;;;;5.63;5.00;;;28.20;44.70;;;;;;4613218;30;20261;-86
2023/06/19 17:12:45;;;;;;;6.20;5.57;;;26.40;46.90;;;;;;4774804;29;20205;-85
2023/06/19 17:38:05;;;;;;;6.10;5.50;;;26.40;47.60;;;;;;4785745;29;20230;-82
2023/06/19 18:44:06;;;;;;;9.75;6.90;;;23.40;61.30;;;;;;4954755;28;20257;-85
2023/06/19 19:09:28;;;;;;;8.60;7.22;;;22.20;88.70;;;;;;4803290;29;20738;-82
2023/06/19 20:15:14;;;;;;;14.23;11.20;;;19.80;99.90;;;;;;4621430;30;20235;-83
2023/06/19 21:11:05;;;;;;;16.07;13.33;;;18.00;99.90;;;;;;4675380;29;20254;-83
2023/06/19 21:36:24;;;;;;;17.30;14.57;;;17.60;99.90;;;;;;4707545;29;20357;-81
2023/06/19 22:06:51;;;;;;;19.30;14.10;;;17.10;99.90;;;;;;4759438;29;20238;-83
2023/06/19 22:27:03;;;;;;;17.23;15.23;;;16.90;99.90;;;;;;4610666;30;20319;-82
2023/06/19 22:57:45;;;;;;;17.60;15.67;;;16.70;99.90;;;;;;4716919;29;20202;-84
2023/06/19 23:17:53;;;;;;;20.47;18.10;;;16.40;99.90;;;;;;4602747;30;20344;-83
2023/06/19 23:43:17;;;;;;;20.50;18.10;;;16.20;99.90;;;;;;4638741;30;20226;-84
